Time;durP1;ratioP1;P1;durP2;ratioP2;P2;SDS_P1;SDS_P2;PMS_P1;PMS_P2;Temp;Humidity;BMP_temperature;BMP_pressure;BME280_temperature;BME280_humidity;BME280_pressure;Samples;Min_cycle;Max_cycle;Signal;HPM_P1;HPM_P2
2023/03/12 00:01:09;;;;;;;8.70;1.90;;;;;;;;;;5001851;28;20522;-53
2023/03/12 00:03:35;;;;;;;4.77;2.70;;;;;;;;;;5031486;28;20920;-53
2023/03/12 00:06:02;;;;;;;9.97;2.43;;;;;;;;;;4999412;28;20446;-52
2023/03/12 00:08:31;;;;;;;4.60;2.50;;;;;;;;;;5014647;28;20453;-52
2023/03/12 00:10:57;;;;;;;2.70;2.13;;;;;;;;;;5012175;28;21025;-52
2023/03/12 00:13:23;;;;;;;6.17;2.70;;;;;;;;;;4990249;28;21072;-52
2023/03/12 00:15:49;;;;;;;3.37;2.40;;;;;;;;;;4994148;28;20434;-52
2023/03/12 00:18:15;;;;;;;2.53;2.33;;;;;;;;;;5036683;28;20458;-53
2023/03/12 00:20:41;;;;;;;3.20;2.90;;;;;;;;;;4997840;28;20453;-54
2023/03/12 00:23:07;;;;;;;4.13;2.40;;;;;;;;;;5021330;28;20841;-53
2023/03/12 00:25:33;;;;;;;2.90;2.10;;;;;;;;;;5001763;28;21223;-53
2023/03/12 00:27:59;;;;;;;3.10;2.23;;;;;;;;;;5023707;28;20445;-53
2023/03/12 00:30:28;;;;;;;3.57;2.53;;;;;;;;;;5007302;28;20482;-53
2023/03/12 00:32:54;;;;;;;4.50;3.73;;;;;;;;;;5020472;28;20450;-52
2023/03/12 00:35:20;;;;;;;15.87;3.17;;;;;;;;;;5015852;28;20809;-53
2023/03/12 00:37:46;;;;;;;5.10;3.43;;;;;;;;;;5020305;28;21126;-53
2023/03/12 00:40:12;;;;;;;4.13;3.10;;;;;;;;;;5016403;28;22099;-52
2023/03/12 00:42:38;;;;;;;3.40;2.47;;;;;;;;;;5020383;28;20438;-52
2023/03/12 00:45:04;;;;;;;2.60;2.30;;;;;;;;;;5022947;28;23465;-52
2023/03/12 00:47:30;;;;;;;4.13;2.40;;;;;;;;;;5015155;28;20450;-51
2023/03/12 00:49:56;;;;;;;3.73;3.23;;;;;;;;;;5029799;28;20470;-51
2023/03/12 00:52:22;;;;;;;4.30;3.07;;;;;;;;;;5008724;28;20775;-51
2023/03/12 00:54:51;;;;;;;5.07;3.23;;;;;;;;;;5031098;28;20434;-51
2023/03/12 00:57:17;;;;;;;4.90;3.33;;;;;;;;;;4977542;28;23793;-51
2023/03/12 00:59:42;;;;;;;4.77;2.63;;;;;;;;;;5029468;28;20948;-51
2023/03/12 01:02:08;;;;;;;6.03;2.60;;;;;;;;;;5001167;28;24029;-51
2023/03/12 01:04:34;;;;;;;4.03;2.27;;;;;;;;;;5024189;28;20431;-52
2023/03/12 01:07:00;;;;;;;3.20;2.20;;;;;;;;;;5027038;28;20443;-51
2023/03/12 01:09:26;;;;;;;3.53;2.37;;;;;;;;;;5026455;28;20975;-51
2023/03/12 01:11:52;;;;;;;4.40;2.73;;;;;;;;;;5012989;28;20546;-55
2023/03/12 01:14:18;;;;;;;4.97;3.30;;;;;;;;;;5029572;28;20481;-51
2023/03/12 01:16:44;;;;;;;3.83;2.50;;;;;;;;;;5006521;28;21247;-52
2023/03/12 01:19:11;;;;;;;3.27;2.30;;;;;;;;;;5033395;28;20821;-52
2023/03/12 01:21:36;;;;;;;2.83;2.40;;;;;;;;;;5026647;28;20435;-51
2023/03/12 01:24:02;;;;;;;3.70;3.07;;;;;;;;;;5018321;28;22615;-52
2023/03/12 01:26:29;;;;;;;4.27;2.80;;;;;;;;;;5022223;28;20444;-52
2023/03/12 01:29:05;;;;;;;3.93;2.67;;;;;;;;;;5024416;28;23759;-52
2023/03/12 01:31:34;;;;;;;3.03;2.20;;;;;;;;;;5020086;28;21024;-50
2023/03/12 01:34:00;;;;;;;3.90;2.80;;;;;;;;;;5020718;28;20431;-51
2023/03/12 01:36:27;;;;;;;3.60;2.40;;;;;;;;;;5038853;28;20438;-51
2023/03/12 01:38:53;;;;;;;3.00;2.70;;;;;;;;;;5031728;28;20465;-52
2023/03/12 01:41:20;;;;;;;5.20;3.07;;;;;;;;;;5041967;28;20426;-51
2023/03/12 01:43:46;;;;;;;3.00;2.60;;;;;;;;;;5008334;28;23427;-52
2023/03/12 01:46:28;;;;;;;5.37;2.57;;;;;;;;;;5025133;28;20458;-51
2023/03/12 01:48:56;;;;;;;5.57;3.20;;;;;;;;;;5019324;28;20450;-52
2023/03/12 01:51:22;;;;;;;4.50;2.70;;;;;;;;;;5038888;28;20594;-55
2023/03/12 01:53:49;;;;;;;4.97;4.00;;;;;;;;;;5017441;28;20450;-55
2023/03/12 01:56:15;;;;;;;3.30;2.03;;;;;;;;;;5048303;28;20981;-61
2023/03/12 01:58:42;;;;;;;3.67;3.07;;;;;;;;;;5036920;28;20521;-51
2023/03/12 02:01:08;;;;;;;4.40;3.03;;;;;;;;;;5041334;28;20438;-53
2023/03/12 02:03:34;;;;;;;3.70;2.30;;;;;;;;;;4978757;28;21146;-51
2023/03/12 02:06:02;;;;;;;4.50;2.90;;;;;;;;;;5030478;28;24998;-51
2023/03/12 02:08:28;;;;;;;6.20;2.40;;;;;;;;;;5016536;28;22503;-51
2023/03/12 02:10:54;;;;;;;6.30;3.53;;;;;;;;;;5012763;28;20493;-54
2023/03/12 02:13:20;;;;;;;6.93;3.63;;;;;;;;;;5006039;28;20427;-50
2023/03/12 02:15:46;;;;;;;12.13;2.73;;;;;;;;;;5004074;28;20441;-54
2023/03/12 02:18:14;;;;;;;4.00;2.23;;;;;;;;;;5040380;28;20430;-54
2023/03/12 02:20:49;;;;;;;3.23;2.57;;;;;;;;;;5003276;28;20447;-53
2023/03/12 02:23:21;;;;;;;2.83;2.47;;;;;;;;;;5044004;28;20456;-52
2023/03/12 02:25:47;;;;;;;2.90;2.53;;;;;;;;;;5032272;28;20525;-52
2023/03/12 02:28:14;;;;;;;5.20;3.10;;;;;;;;;;5026256;28;20961;-53
2023/03/12 02:30:41;;;;;;;6.67;3.40;;;;;;;;;;5007295;28;20530;-51
2023/03/12 02:33:09;;;;;;;4.10;2.93;;;;;;;;;;5040239;28;20909;-53
2023/03/12 02:35:35;;;;;;;3.80;2.67;;;;;;;;;;5003000;28;20442;-52
2023/03/12 02:38:01;;;;;;;3.80;3.00;;;;;;;;;;5037752;28;20533;-52
2023/03/12 02:40:35;;;;;;;10.87;3.13;;;;;;;;;;5013834;28;20449;-54
2023/03/12 02:43:01;;;;;;;8.20;3.33;;;;;;;;;;5037103;28;20450;-53
2023/03/12 02:45:28;;;;;;;4.37;3.10;;;;;;;;;;5007235;28;20431;-53
2023/03/12 02:47:54;;;;;;;5.73;3.70;;;;;;;;;;5038974;28;20465;-54
2023/03/12 02:50:20;;;;;;;6.47;2.97;;;;;;;;;;5012203;28;20477;-54
2023/03/12 02:52:46;;;;;;;3.07;2.40;;;;;;;;;;5038932;28;20446;-53
2023/03/12 02:55:12;;;;;;;3.20;2.43;;;;;;;;;;5035662;28;20442;-54
2023/03/12 02:57:38;;;;;;;10.20;2.60;;;;;;;;;;5028924;28;20449;-52
2023/03/12 03:00:11;;;;;;;6.63;3.00;;;;;;;;;;5003488;28;20537;-52
2023/03/12 03:02:38;;;;;;;4.90;3.30;;;;;;;;;;5028461;28;20434;-54
2023/03/12 03:05:05;;;;;;;4.73;2.93;;;;;;;;;;4982983;28;20469;-52
2023/03/12 03:07:31;;;;;;;3.50;2.20;;;;;;;;;;5030090;28;21244;-53
2023/03/12 03:10:02;;;;;;;3.80;2.27;;;;;;;;;;5009147;28;20466;-52
2023/03/12 03:12:28;;;;;;;4.20;2.73;;;;;;;;;;5028691;28;20446;-52
2023/03/12 03:14:54;;;;;;;4.23;2.67;;;;;;;;;;4999760;28;20466;-59
2023/03/12 03:17:23;;;;;;;2.17;1.60;;;;;;;;;;5035150;28;20961;-53
2023/03/12 03:19:50;;;;;;;3.17;1.93;;;;;;;;;;5015471;28;20826;-52
2023/03/12 03:22:17;;;;;;;4.10;2.33;;;;;;;;;;5026196;28;20442;-51
2023/03/12 03:24:43;;;;;;;3.97;2.70;;;;;;;;;;5026858;28;20518;-52
2023/03/12 03:27:10;;;;;;;2.40;2.20;;;;;;;;;;5041221;28;20529;-51
2023/03/12 03:29:36;;;;;;;8.10;3.23;;;;;;;;;;5020200;28;20572;-52
2023/03/12 03:32:02;;;;;;;3.93;2.70;;;;;;;;;;5027604;28;20473;-53
2023/03/12 03:34:29;;;;;;;4.23;2.40;;;;;;;;;;5013594;28;20833;-54
2023/03/12 03:36:55;;;;;;;3.00;2.13;;;;;;;;;;5036659;28;20453;-52
2023/03/12 03:39:21;;;;;;;3.13;2.70;;;;;;;;;;4991823;28;24354;-52
2023/03/12 03:41:47;;;;;;;5.33;2.47;;;;;;;;;;5019999;28;20556;-52
2023/03/12 03:44:13;;;;;;;2.90;2.33;;;;;;;;;;5029560;28;20535;-51
2023/03/12 03:46:39;;;;;;;2.90;2.60;;;;;;;;;;5029654;28;20446;-53
2023/03/12 03:49:06;;;;;;;8.10;2.60;;;;;;;;;;5034032;28;20496;-53
2023/03/12 03:51:32;;;;;;;5.00;2.40;;;;;;;;;;5029062;28;20556;-52
2023/03/12 03:54:01;;;;;;;3.90;2.30;;;;;;;;;;5008901;28;20458;-52
2023/03/12 03:56:27;;;;;;;2.77;2.53;;;;;;;;;;5025733;28;20542;-54
2023/03/12 03:58:53;;;;;;;3.00;2.33;;;;;;;;;;5032578;28;20506;-51
2023/03/12 04:01:19;;;;;;;3.60;3.10;;;;;;;;;;5033765;28;20536;-52
2023/03/12 04:03:45;;;;;;;2.67;2.17;;;;;;;;;;5009781;28;20445;-53
2023/03/12 04:06:11;;;;;;;2.97;2.67;;;;;;;;;;5041351;28;20452;-52
2023/03/12 04:08:37;;;;;;;3.50;2.63;;;;;;;;;;5015982;28;20439;-53
2023/03/12 04:11:07;;;;;;;3.47;2.50;;;;;;;;;;5027409;28;20485;-52
2023/03/12 04:13:33;;;;;;;4.03;2.93;;;;;;;;;;4977437;28;20558;-52
2023/03/12 04:15:59;;;;;;;4.40;2.80;;;;;;;;;;5041171;28;20951;-54
2023/03/12 04:18:26;;;;;;;5.90;2.97;;;;;;;;;;5018065;28;20441;-52
2023/03/12 04:20:52;;;;;;;3.13;2.83;;;;;;;;;;5049802;28;20496;-52
2023/03/12 04:23:18;;;;;;;8.43;3.20;;;;;;;;;;5004564;28;22482;-52
2023/03/12 04:25:44;;;;;;;5.87;3.40;;;;;;;;;;5025303;28;21169;-51
2023/03/12 04:28:10;;;;;;;6.30;3.70;;;;;;;;;;5033929;28;20442;-51
2023/03/12 04:30:37;;;;;;;4.47;3.40;;;;;;;;;;5039816;28;20513;-52
2023/03/12 04:33:03;;;;;;;6.17;2.87;;;;;;;;;;5031840;28;21224;-52
2023/03/12 04:35:29;;;;;;;8.67;3.20;;;;;;;;;;5036458;28;20438;-53
2023/03/12 04:37:55;;;;;;;7.27;3.27;;;;;;;;;;5019449;28;21283;-52
2023/03/12 04:40:21;;;;;;;5.23;3.00;;;;;;;;;;5026048;28;20461;-50
2023/03/12 04:42:54;;;;;;;4.13;3.00;;;;;;;;;;5017036;28;21960;-52
2023/03/12 04:45:20;;;;;;;4.47;2.73;;;;;;;;;;5024398;28;20529;-52
2023/03/12 04:47:46;;;;;;;8.33;3.40;;;;;;;;;;5020682;28;21149;-52
2023/03/12 04:50:12;;;;;;;6.33;3.60;;;;;;;;;;5004531;28;20523;-54
2023/03/12 04:52:38;;;;;;;4.17;2.70;;;;;;;;;;5040159;28;20442;-52
2023/03/12 04:55:05;;;;;;;3.50;3.20;;;;;;;;;;4999945;28;20429;-54
2023/03/12 04:57:32;;;;;;;2.60;2.30;;;;;;;;;;5025336;28;20458;-53
2023/03/12 04:59:57;;;;;;;3.43;3.13;;;;;;;;;;5014984;28;20445;-51
2023/03/12 05:02:24;;;;;;;5.30;3.90;;;;;;;;;;5022665;28;20442;-53
2023/03/12 05:04:50;;;;;;;3.80;3.13;;;;;;;;;;5020963;28;20442;-51
2023/03/12 05:07:16;;;;;;;2.67;2.47;;;;;;;;;;5020494;28;21157;-50
2023/03/12 05:09:43;;;;;;;4.33;3.30;;;;;;;;;;4994060;28;20440;-50
2023/03/12 05:12:09;;;;;;;5.90;3.10;;;;;;;;;;5028599;28;20505;-53
2023/03/12 05:14:38;;;;;;;5.13;4.37;;;;;;;;;;4982010;28;20895;-52
2023/03/12 05:17:04;;;;;;;5.93;3.20;;;;;;;;;;5029537;28;20537;-52
2023/03/12 05:19:30;;;;;;;6.27;3.60;;;;;;;;;;5024847;28;20445;-53
2023/03/12 05:21:56;;;;;;;4.93;3.20;;;;;;;;;;5041581;28;20439;-53
2023/03/12 05:24:23;;;;;;;7.93;3.70;;;;;;;;;;5004122;28;20560;-53
2023/03/12 05:26:49;;;;;;;5.63;3.20;;;;;;;;;;5033855;28;20475;-52
2023/03/12 05:29:15;;;;;;;6.17;3.33;;;;;;;;;;5002919;28;20545;-52
2023/03/12 05:31:41;;;;;;;12.87;4.03;;;;;;;;;;5035765;28;20471;-53
2023/03/12 05:34:07;;;;;;;5.30;3.17;;;;;;;;;;5012558;28;20803;-54
2023/03/12 05:36:33;;;;;;;4.53;3.20;;;;;;;;;;5032994;28;20449;-53
2023/03/12 05:38:59;;;;;;;4.97;3.00;;;;;;;;;;5009845;28;20432;-53
2023/03/12 05:41:26;;;;;;;4.10;2.90;;;;;;;;;;5035139;28;21518;-54
2023/03/12 05:43:55;;;;;;;6.00;3.40;;;;;;;;;;5000653;28;20422;-52
2023/03/12 05:46:21;;;;;;;6.73;3.30;;;;;;;;;;5023093;28;20469;-52
2023/03/12 05:48:47;;;;;;;9.17;3.10;;;;;;;;;;5030821;28;20435;-54
2023/03/12 05:51:13;;;;;;;5.10;3.50;;;;;;;;;;5014695;28;20474;-53
2023/03/12 05:53:39;;;;;;;5.40;4.17;;;;;;;;;;5037074;28;20450;-53
2023/03/12 05:56:06;;;;;;;4.50;3.60;;;;;;;;;;5035478;28;20453;-53
2023/03/12 05:58:32;;;;;;;4.80;3.60;;;;;;;;;;5030049;28;20526;-54
2023/03/12 06:00:58;;;;;;;6.73;3.97;;;;;;;;;;5006804;28;20879;-54
2023/03/12 06:03:24;;;;;;;4.23;3.10;;;;;;;;;;5035493;28;20453;-54
2023/03/12 06:05:53;;;;;;;4.07;3.67;;;;;;;;;;5030743;28;20517;-52
2023/03/12 06:08:19;;;;;;;3.83;2.93;;;;;;;;;;5033606;28;20430;-52
2023/03/12 06:10:45;;;;;;;4.90;3.90;;;;;;;;;;5016912;28;20484;-52
2023/03/12 06:13:11;;;;;;;4.97;4.03;;;;;;;;;;5038507;28;20466;-53
2023/03/12 06:15:37;;;;;;;4.37;3.20;;;;;;;;;;4991780;28;20446;-53
2023/03/12 06:18:03;;;;;;;4.33;3.13;;;;;;;;;;5036993;28;20438;-53
2023/03/12 06:20:29;;;;;;;4.37;3.57;;;;;;;;;;5037618;28;20434;-53
2023/03/12 06:22:55;;;;;;;3.43;3.13;;;;;;;;;;5038477;28;20993;-54
2023/03/12 06:25:21;;;;;;;7.40;3.63;;;;;;;;;;5033765;28;20446;-54
2023/03/12 06:27:47;;;;;;;7.33;3.83;;;;;;;;;;5009873;28;20480;-51
2023/03/12 06:30:13;;;;;;;5.17;3.57;;;;;;;;;;5043443;28;20465;-52
2023/03/12 06:32:39;;;;;;;5.40;2.70;;;;;;;;;;5004823;28;20454;-53
2023/03/12 06:35:05;;;;;;;4.57;2.90;;;;;;;;;;5041644;28;20789;-51
2023/03/12 06:37:31;;;;;;;4.20;3.03;;;;;;;;;;5014080;28;20438;-52
2023/03/12 06:39:57;;;;;;;4.00;3.60;;;;;;;;;;5037850;28;20430;-52
2023/03/12 06:42:25;;;;;;;4.50;3.60;;;;;;;;;;5017138;28;20431;-54
2023/03/12 06:44:52;;;;;;;5.67;3.30;;;;;;;;;;5040847;28;20437;-52
2023/03/12 06:47:18;;;;;;;9.03;3.80;;;;;;;;;;4998088;28;21019;-52
2023/03/12 06:49:44;;;;;;;9.73;4.30;;;;;;;;;;5024048;28;20498;-51
2023/03/12 06:52:10;;;;;;;6.07;3.83;;;;;;;;;;5039469;28;20470;-54
2023/03/12 06:54:36;;;;;;;8.23;4.33;;;;;;;;;;5009207;28;20460;-55
2023/03/12 06:57:02;;;;;;;4.10;3.53;;;;;;;;;;5028968;28;20437;-54
2023/03/12 06:59:28;;;;;;;6.10;4.00;;;;;;;;;;5024093;28;20442;-53
2023/03/12 07:01:54;;;;;;;4.77;4.00;;;;;;;;;;5031048;28;20446;-54
2023/03/12 07:04:20;;;;;;;5.53;3.10;;;;;;;;;;5005901;28;20446;-54
2023/03/12 07:06:49;;;;;;;3.97;2.87;;;;;;;;;;5034547;28;20435;-52
2023/03/12 07:09:16;;;;;;;4.40;3.10;;;;;;;;;;5014455;28;20537;-52
2023/03/12 07:11:42;;;;;;;7.50;4.67;;;;;;;;;;5034032;28;20528;-52
2023/03/12 07:14:08;;;;;;;4.90;3.80;;;;;;;;;;4983184;28;20761;-51
2023/03/12 07:16:34;;;;;;;5.17;4.30;;;;;;;;;;5028305;28;20481;-53
2023/03/12 07:19:00;;;;;;;4.00;3.53;;;;;;;;;;4992944;28;20446;-51
2023/03/12 07:21:26;;;;;;;5.20;4.00;;;;;;;;;;5033790;28;20438;-52
2023/03/12 07:23:52;;;;;;;5.67;4.10;;;;;;;;;;5003988;28;20453;-51
2023/03/12 07:26:18;;;;;;;5.30;3.77;;;;;;;;;;5028749;28;21318;-51
2023/03/12 07:28:44;;;;;;;4.77;3.60;;;;;;;;;;5013156;28;20439;-53
2023/03/12 07:31:10;;;;;;;3.73;3.43;;;;;;;;;;5028344;28;21050;-53
2023/03/12 07:33:36;;;;;;;7.27;4.30;;;;;;;;;;5042112;28;20521;-52
2023/03/12 07:36:02;;;;;;;7.30;4.23;;;;;;;;;;5008298;28;20975;-54
2023/03/12 07:38:28;;;;;;;7.33;4.30;;;;;;;;;;5038949;28;20468;-53
2023/03/12 07:40:55;;;;;;;8.70;4.60;;;;;;;;;;5012994;28;20435;-52
2023/03/12 07:43:21;;;;;;;5.80;4.43;;;;;;;;;;5040359;28;20426;-50
2023/03/12 07:45:47;;;;;;;8.50;4.90;;;;;;;;;;5015178;28;20450;-52
2023/03/12 07:48:13;;;;;;;7.03;4.67;;;;;;;;;;5039410;28;20430;-53
2023/03/12 07:50:39;;;;;;;6.43;5.63;;;;;;;;;;5001116;28;20515;-51
2023/03/12 07:53:05;;;;;;;7.00;5.37;;;;;;;;;;5038887;28;20885;-52
2023/03/12 07:55:32;;;;;;;5.67;4.67;;;;;;;;;;5011567;28;20442;-54
2023/03/12 07:57:58;;;;;;;4.53;4.13;;;;;;;;;;5044864;28;21168;-52
2023/03/12 08:00:27;;;;;;;5.03;4.33;;;;;;;;;;5027363;28;20943;-52
2023/03/12 08:02:53;;;;;;;4.53;4.13;;;;;;;;;;5034611;28;20449;-51
2023/03/12 08:05:23;;;;;;;9.00;4.50;;;;;;;;;;4998255;28;20438;-54
2023/03/12 08:07:49;;;;;;;7.83;5.13;;;;;;;;;;5038301;28;20447;-52
2023/03/12 08:10:15;;;;;;;5.00;3.77;;;;;;;;;;5006380;28;21069;-53
2023/03/12 08:12:41;;;;;;;4.00;3.57;;;;;;;;;;5029333;28;20840;-54
2023/03/12 08:15:07;;;;;;;5.43;4.00;;;;;;;;;;5011066;28;20450;-52
2023/03/12 08:17:34;;;;;;;6.93;4.20;;;;;;;;;;5035103;28;20429;-54
2023/03/12 08:20:00;;;;;;;4.60;3.80;;;;;;;;;;5009601;28;20939;-51
2023/03/12 08:22:26;;;;;;;6.83;4.70;;;;;;;;;;5031934;28;20458;-53
2023/03/12 08:24:52;;;;;;;5.27;3.50;;;;;;;;;;4998802;28;20674;-53
2023/03/12 08:27:18;;;;;;;6.97;4.07;;;;;;;;;;5029084;28;20426;-51
2023/03/12 08:29:43;;;;;;;5.13;3.50;;;;;;;;;;5040421;28;20492;-51
2023/03/12 08:32:09;;;;;;;4.73;3.87;;;;;;;;;;5039708;28;22487;-55
2023/03/12 08:34:35;;;;;;;6.30;5.07;;;;;;;;;;5034625;28;20434;-53
2023/03/12 08:37:02;;;;;;;6.00;4.00;;;;;;;;;;5006137;28;20446;-54
2023/03/12 08:39:28;;;;;;;4.67;4.13;;;;;;;;;;5034353;28;20814;-52
2023/03/12 08:41:54;;;;;;;4.87;3.93;;;;;;;;;;5003152;28;20460;-53
2023/03/12 08:44:21;;;;;;;6.87;3.70;;;;;;;;;;5027517;28;20446;-54
2023/03/12 08:46:47;;;;;;;5.43;3.90;;;;;;;;;;5026658;28;21188;-52
2023/03/12 08:49:13;;;;;;;5.30;4.23;;;;;;;;;;5035063;28;20546;-52
2023/03/12 08:51:39;;;;;;;5.50;3.83;;;;;;;;;;4995227;28;20576;-52
2023/03/12 08:54:05;;;;;;;7.33;4.70;;;;;;;;;;5034837;28;20445;-53
2023/03/12 08:56:32;;;;;;;4.60;4.03;;;;;;;;;;4978501;28;20477;-52
2023/03/12 08:58:58;;;;;;;3.50;3.20;;;;;;;;;;5031720;28;20442;-52
2023/03/12 09:01:24;;;;;;;10.77;5.97;;;;;;;;;;5025671;28;22953;-52
2023/03/12 09:03:53;;;;;;;8.00;5.90;;;;;;;;;;5025636;28;21028;-52
2023/03/12 09:06:19;;;;;;;6.43;5.10;;;;;;;;;;5036426;28;20993;-54
2023/03/12 09:08:45;;;;;;;7.87;4.77;;;;;;;;;;5039712;28;20430;-53
2023/03/12 09:11:11;;;;;;;7.37;4.73;;;;;;;;;;5031127;28;20474;-53
2023/03/12 09:13:38;;;;;;;6.57;4.70;;;;;;;;;;5020486;28;20934;-51
2023/03/12 09:16:04;;;;;;;5.30;3.87;;;;;;;;;;5038115;28;20439;-50
2023/03/12 09:18:30;;;;;;;6.50;4.43;;;;;;;;;;5022901;28;20426;-52
2023/03/12 09:20:56;;;;;;;6.90;4.33;;;;;;;;;;5046427;28;20434;-53
2023/03/12 09:23:23;;;;;;;5.50;4.90;;;;;;;;;;5024205;28;20430;-51
2023/03/12 09:25:49;;;;;;;7.20;5.10;;;;;;;;;;5047305;28;20498;-51
2023/03/12 09:28:15;;;;;;;4.97;4.50;;;;;;;;;;4998646;28;20489;-52
2023/03/12 09:30:41;;;;;;;3.93;3.53;;;;;;;;;;5042616;28;20534;-51
2023/03/12 09:33:07;;;;;;;7.95;4.13;;;;;;;;;;5017538;28;20439;-53
2023/03/12 09:35:33;;;;;;;4.87;4.00;;;;;;;;;;5045735;28;20179;-55
2023/03/12 09:37:59;;;;;;;5.47;4.50;;;;;;;;;;5036451;28;20430;-53
2023/03/12 09:40:27;;;;;;;3.93;3.20;;;;;;;;;;5041539;28;20844;-50
2023/03/12 09:43:00;;;;;;;4.70;3.57;;;;;;;;;;4996709;28;20943;-52
2023/03/12 09:45:26;;;;;;;4.73;3.23;;;;;;;;;;5050727;28;20938;-51
2023/03/12 09:47:53;;;;;;;3.97;3.53;;;;;;;;;;5039274;28;21023;-52
2023/03/12 09:50:22;;;;;;;3.90;3.27;;;;;;;;;;5043115;28;20660;-53
2023/03/12 09:52:50;;;;;;;3.60;2.80;;;;;;;;;;5016793;28;20467;-51
2023/03/12 09:55:18;;;;;;;6.30;3.20;;;;;;;;;;5028789;28;20426;-52
2023/03/12 09:57:44;;;;;;;6.40;3.80;;;;;;;;;;5007310;28;20510;-53
2023/03/12 10:00:11;;;;;;;3.47;2.37;;;;;;;;;;5048810;28;20951;-54
2023/03/12 10:02:40;;;;;;;2.83;2.13;;;;;;;;;;5042614;28;20470;-51
2023/03/12 10:05:06;;;;;;;3.27;2.97;;;;;;;;;;5012853;28;20548;-52
2023/03/12 10:07:36;;;;;;;3.70;2.73;;;;;;;;;;5036006;28;21270;-52
2023/03/12 10:10:20;;;;;;;3.40;2.30;;;;;;;;;;5033250;28;20700;-52
2023/03/12 10:13:05;;;;;;;4.57;2.47;;;;;;;;;;5039098;28;20488;-55
2023/03/12 10:15:34;;;;;;;3.57;2.60;;;;;;;;;;5018905;28;20442;-55
2023/03/12 10:18:05;;;;;;;3.07;2.47;;;;;;;;;;5050556;28;20442;-53
2023/03/12 10:20:31;;;;;;;3.40;2.30;;;;;;;;;;5048321;28;20492;-52
2023/03/12 10:23:16;;;;;;;3.20;2.37;;;;;;;;;;5036969;28;20450;-53
2023/03/12 10:25:45;;;;;;;4.13;2.40;;;;;;;;;;5027389;28;20476;-53
2023/03/12 10:28:17;;;;;;;4.17;2.33;;;;;;;;;;5020844;28;21016;-51
2023/03/12 10:30:46;;;;;;;3.17;2.10;;;;;;;;;;5017302;28;20466;-54
2023/03/12 10:33:13;;;;;;;2.50;2.20;;;;;;;;;;5027341;28;21648;-53
2023/03/12 10:35:39;;;;;;;2.90;2.33;;;;;;;;;;5041671;28;20434;-52
2023/03/12 10:38:05;;;;;;;2.60;2.27;;;;;;;;;;5037503;28;22782;-58
2023/03/12 10:40:34;;;;;;;3.40;2.30;;;;;;;;;;5031543;28;20450;-52
2023/03/12 10:43:01;;;;;;;6.70;2.10;;;;;;;;;;5036930;28;20427;-53
2023/03/12 10:45:33;;;;;;;2.77;2.10;;;;;;;;;;5006957;28;20442;-52
2023/03/12 10:48:03;;;;;;;2.30;2.10;;;;;;;;;;5038173;28;20481;-53
2023/03/12 10:50:30;;;;;;;2.33;1.80;;;;;;;;;;5032332;28;20470;-53
2023/03/12 10:53:15;;;;;;;2.00;1.70;;;;;;;;;;5036097;28;20457;-52
2023/03/12 10:55:41;;;;;;;3.00;2.50;;;;;;;;;;5015110;28;20438;-53
2023/03/12 10:58:07;;;;;;;3.03;1.80;;;;;;;;;;5012752;28;20449;-54
2023/03/12 11:00:33;;;;;;;3.80;1.90;;;;;;;;;;5041265;28;20951;-52
2023/03/12 11:03:03;;;;;;;7.30;1.80;;;;;;;;;;4975522;28;20447;-52
2023/03/12 11:05:30;;;;;;;4.40;1.77;;;;;;;;;;5041802;28;20449;-51
2023/03/12 11:07:56;;;;;;;2.87;2.10;;;;;;;;;;5027299;28;20496;-52
2023/03/12 11:10:23;;;;;;;2.20;1.47;;;;;;;;;;5035652;28;20446;-51
2023/03/12 11:12:52;;;;;;;2.80;1.83;;;;;;;;;;5014104;28;20466;-52
2023/03/12 11:15:19;;;;;;;4.43;1.70;;;;;;;;;;5043864;28;20440;-52
2023/03/12 11:17:45;;;;;;;3.57;2.03;;;;;;;;;;5008182;28;20445;-52
2023/03/12 11:20:27;;;;;;;2.50;1.70;;;;;;;;;;5009386;28;20435;-52
2023/03/12 11:22:53;;;;;;;3.60;1.67;;;;;;;;;;5002999;28;20878;-50
2023/03/12 11:25:26;;;;;;;2.10;1.70;;;;;;;;;;5029299;28;20450;-52
2023/03/12 11:27:53;;;;;;;2.30;1.30;;;;;;;;;;5008821;28;20465;-53
2023/03/12 11:30:24;;;;;;;1.80;1.23;;;;;;;;;;5031740;28;20950;-53
2023/03/12 11:33:06;;;;;;;1.43;1.10;;;;;;;;;;4989206;28;20973;-50
2023/03/12 11:35:38;;;;;;;5.03;1.63;;;;;;;;;;5018337;28;20445;-53
2023/03/12 11:38:18;;;;;;;2.17;1.10;;;;;;;;;;5005039;28;20943;-51
2023/03/12 11:41:03;;;;;;;1.40;1.10;;;;;;;;;;5036774;28;20448;-51
2023/03/12 11:43:32;;;;;;;2.07;0.80;;;;;;;;;;5024401;28;21236;-54
2023/03/12 11:46:10;;;;;;;1.20;0.73;;;;;;;;;;5037835;28;20438;-52
2023/03/12 11:48:36;;;;;;;4.00;1.10;;;;;;;;;;5010872;28;20449;-53
2023/03/12 11:51:12;;;;;;;1.50;1.13;;;;;;;;;;5036183;28;20489;-53
2023/03/12 11:53:42;;;;;;;2.50;1.30;;;;;;;;;;5046378;28;20618;-52
2023/03/12 11:56:13;;;;;;;1.60;0.87;;;;;;;;;;5041096;28;20438;-52
2023/03/12 11:58:39;;;;;;;2.90;1.23;;;;;;;;;;5041841;28;20445;-53
2023/03/12 12:01:05;;;;;;;5.10;1.40;;;;;;;;;;5027509;28;20438;-53
2023/03/12 12:04:10;;;;;;;1.77;1.00;;;;;;;;;;4992400;28;21583;-52
2023/03/12 12:06:45;;;;;;;1.30;0.90;;;;;;;;;;5022315;28;20445;-52
2023/03/12 12:09:17;;;;;;;1.40;0.97;;;;;;;;;;5026736;28;20800;-53
2023/03/12 12:11:44;;;;;;;1.90;1.10;;;;;;;;;;5019700;28;20477;-51
2023/03/12 12:14:29;;;;;;;4.47;1.17;;;;;;;;;;5019351;28;20526;-52
2023/03/12 12:16:56;;;;;;;1.83;0.90;;;;;;;;;;5002705;28;21043;-52
2023/03/12 12:19:41;;;;;;;3.77;1.20;;;;;;;;;;5023385;28;20435;-52
2023/03/12 12:22:07;;;;;;;1.60;1.00;;;;;;;;;;5013457;28;20457;-51
2023/03/12 12:24:52;;;;;;;2.10;0.97;;;;;;;;;;5037303;28;20470;-52
2023/03/12 12:27:20;;;;;;;2.67;1.17;;;;;;;;;;5009840;28;20680;-51
2023/03/12 12:30:04;;;;;;;2.30;1.43;;;;;;;;;;5039856;28;20426;-52
2023/03/12 12:32:30;;;;;;;4.70;1.33;;;;;;;;;;5005454;28;21847;-52
2023/03/12 12:34:59;;;;;;;2.23;1.20;;;;;;;;;;5046256;28;20458;-53
2023/03/12 12:37:37;;;;;;;2.67;1.50;;;;;;;;;;5002689;28;20562;-52
2023/03/12 12:40:07;;;;;;;1.60;0.90;;;;;;;;;;5035344;28;20422;-53
2023/03/12 12:42:33;;;;;;;1.30;1.00;;;;;;;;;;5040318;28;20436;-52
2023/03/12 12:44:59;;;;;;;1.50;1.00;;;;;;;;;;5024349;28;20441;-52
2023/03/12 12:47:30;;;;;;;4.40;2.43;;;;;;;;;;5050212;28;20568;-52
2023/03/12 12:49:58;;;;;;;5.73;1.50;;;;;;;;;;5020130;28;20438;-51
2023/03/12 12:52:25;;;;;;;2.80;1.20;;;;;;;;;;5039400;28;20482;-52
2023/03/12 12:54:51;;;;;;;3.23;1.10;;;;;;;;;;4999931;28;20463;-51
2023/03/12 12:57:23;;;;;;;2.43;1.00;;;;;;;;;;5032766;28;20427;-52
2023/03/12 13:00:21;;;;;;;3.80;1.50;;;;;;;;;;5032882;28;20445;-52
2023/03/12 13:02:47;;;;;;;4.00;2.07;;;;;;;;;;4982568;28;20450;-52
2023/03/12 13:05:21;;;;;;;5.90;3.43;;;;;;;;;;5025296;28;20438;-53
2023/03/12 13:07:51;;;;;;;5.40;1.80;;;;;;;;;;5033746;28;20441;-53
2023/03/12 13:10:34;;;;;;;3.87;1.33;;;;;;;;;;5026794;28;20959;-53
2023/03/12 13:13:02;;;;;;;5.10;1.73;;;;;;;;;;5054970;28;20437;-51
2023/03/12 13:15:27;;;;;;;3.67;1.77;;;;;;;;;;5021056;28;21100;-52
2023/03/12 13:18:06;;;;;;;7.20;1.33;;;;;;;;;;5037018;28;20438;-53
2023/03/12 13:20:58;;;;;;;3.97;1.27;;;;;;;;;;5012733;28;20447;-52
2023/03/12 13:23:46;;;;;;;4.90;1.30;;;;;;;;;;5019791;28;20491;-52
2023/03/12 13:26:21;;;;;;;3.87;1.27;;;;;;;;;;5000957;28;20549;-53
2023/03/12 13:28:53;;;;;;;3.20;1.57;;;;;;;;;;5040331;28;20455;-53
2023/03/12 13:31:28;;;;;;;2.77;1.60;;;;;;;;;;5021743;28;20469;-51
2023/03/12 13:34:03;;;;;;;2.50;1.07;;;;;;;;;;5040623;28;20918;-51
2023/03/12 13:36:32;;;;;;;3.13;1.43;;;;;;;;;;5008484;28;20446;-52
2023/03/12 13:38:59;;;;;;;3.20;1.40;;;;;;;;;;5037666;28;20430;-51
2023/03/12 13:41:40;;;;;;;4.73;1.60;;;;;;;;;;5002006;28;21144;-51
2023/03/12 13:44:25;;;;;;;5.20;1.30;;;;;;;;;;5039214;28;20553;-52
2023/03/12 13:47:00;;;;;;;3.53;1.30;;;;;;;;;;5030251;28;20467;-50
2023/03/12 13:49:26;;;;;;;2.90;1.27;;;;;;;;;;5036895;28;21291;-54
2023/03/12 13:51:56;;;;;;;6.77;1.53;;;;;;;;;;5018415;28;20517;-53
2023/03/12 13:54:23;;;;;;;3.93;1.47;;;;;;;;;;5038504;28;20596;-52
2023/03/12 13:56:56;;;;;;;3.60;1.93;;;;;;;;;;5009808;28;20454;-53
2023/03/12 13:59:22;;;;;;;3.67;1.33;;;;;;;;;;5043260;28;20511;-52
2023/03/12 14:01:49;;;;;;;3.97;1.37;;;;;;;;;;5018414;28;20967;-51
2023/03/12 14:04:18;;;;;;;2.63;1.60;;;;;;;;;;5037387;28;20427;-51
2023/03/12 14:06:55;;;;;;;4.10;1.30;;;;;;;;;;5037405;28;20449;-51
2023/03/12 14:09:39;;;;;;;4.07;1.23;;;;;;;;;;5054364;28;20450;-52
2023/03/12 14:12:05;;;;;;;3.10;1.10;;;;;;;;;;4999035;28;20478;-52
2023/03/12 14:14:40;;;;;;;2.10;1.33;;;;;;;;;;5021964;28;20438;-53
2023/03/12 14:17:12;;;;;;;3.53;1.40;;;;;;;;;;5027753;28;20450;-52
2023/03/12 14:19:44;;;;;;;1.67;1.00;;;;;;;;;;5053948;28;22874;-52
2023/03/12 14:22:10;;;;;;;2.40;1.27;;;;;;;;;;5043088;28;20438;-53
2023/03/12 14:24:40;;;;;;;3.67;1.30;;;;;;;;;;5043403;28;20970;-52
2023/03/12 14:27:10;;;;;;;2.13;1.20;;;;;;;;;;5025892;28;20446;-51
2023/03/12 14:29:37;;;;;;;2.47;1.43;;;;;;;;;;5027489;28;20446;-53
2023/03/12 14:32:03;;;;;;;4.67;1.50;;;;;;;;;;5005556;28;21057;-52
2023/03/12 14:34:30;;;;;;;4.43;1.97;;;;;;;;;;5021670;28;20924;-53
2023/03/12 14:37:00;;;;;;;4.90;1.70;;;;;;;;;;5010355;28;20569;-52
2023/03/12 14:39:39;;;;;;;2.43;1.30;;;;;;;;;;4999486;28;20786;-52
2023/03/12 14:42:05;;;;;;;3.40;1.57;;;;;;;;;;4986609;28;20832;-52
2023/03/12 14:44:32;;;;;;;5.03;1.60;;;;;;;;;;5041920;28;20442;-52
2023/03/12 14:47:11;;;;;;;4.80;1.60;;;;;;;;;;5007011;28;20945;-52
2023/03/12 14:49:44;;;;;;;6.70;1.73;;;;;;;;;;5032853;28;20479;-52